sensor_id;sensor_type;location;lat;lon;timestamp;P1;durP1;ratioP1;P2;durP2;ratioP2
13793;SDS011;31160;49.500;7.772;2022-11-14T00:02:33;6.77;;;3.57;;
13793;SDS011;31160;49.500;7.772;2022-11-14T00:05:19;9.87;;;4.60;;
13793;SDS011;31160;49.500;7.772;2022-11-14T00:08:04;8.63;;;4.53;;
13793;SDS011;31160;49.500;7.772;2022-11-14T00:10:50;14.87;;;6.87;;
13793;SDS011;31160;49.500;7.772;2022-11-14T00:13:35;10.77;;;6.07;;
13793;SDS011;31160;49.500;7.772;2022-11-14T00:16:21;7.57;;;4.63;;
13793;SDS011;31160;49.500;7.772;2022-11-14T00:19:06;6.63;;;4.80;;
13793;SDS011;31160;49.500;7.772;2022-11-14T00:21:52;8.03;;;4.90;;
13793;SDS011;31160;49.500;7.772;2022-11-14T00:24:38;10.07;;;5.30;;
13793;SDS011;31160;49.500;7.772;2022-11-14T00:27:23;10.87;;;5.60;;
13793;SDS011;31160;49.500;7.772;2022-11-14T00:30:09;6.67;;;4.80;;
13793;SDS011;31160;49.500;7.772;2022-11-14T00:32:54;8.43;;;5.03;;
13793;SDS011;31160;49.500;7.772;2022-11-14T00:35:40;6.03;;;4.33;;
13793;SDS011;31160;49.500;7.772;2022-11-14T00:38:33;10.13;;;5.30;;
13793;SDS011;31160;49.500;7.772;2022-11-14T00:41:18;14.97;;;7.03;;
13793;SDS011;31160;49.500;7.772;2022-11-14T00:44:04;11.30;;;5.97;;
13793;SDS011;31160;49.500;7.772;2022-11-14T00:46:49;8.03;;;5.77;;
13793;SDS011;31160;49.500;7.772;2022-11-14T00:49:34;11.00;;;6.33;;
13793;SDS011;31160;49.500;7.772;2022-11-14T00:52:20;19.40;;;10.03;;
13793;SDS011;31160;49.500;7.772;2022-11-14T00:55:06;16.73;;;9.70;;
13793;SDS011;31160;49.500;7.772;2022-11-14T00:57:51;17.93;;;9.93;;
13793;SDS011;31160;49.500;7.772;2022-11-14T01:00:37;18.53;;;9.53;;
13793;SDS011;31160;49.500;7.772;2022-11-14T01:03:23;19.23;;;10.37;;
13793;SDS011;31160;49.500;7.772;2022-11-14T01:06:10;18.03;;;9.50;;
13793;SDS011;31160;49.500;7.772;2022-11-14T01:08:55;30.67;;;9.73;;
13793;SDS011;31160;49.500;7.772;2022-11-14T01:11:40;17.90;;;9.90;;
13793;SDS011;31160;49.500;7.772;2022-11-14T01:14:26;19.53;;;10.07;;
13793;SDS011;31160;49.500;7.772;2022-11-14T01:17:11;20.27;;;9.77;;
13793;SDS011;31160;49.500;7.772;2022-11-14T01:19:57;29.20;;;9.73;;
13793;SDS011;31160;49.500;7.772;2022-11-14T01:22:42;41.20;;;8.03;;
13793;SDS011;31160;49.500;7.772;2022-11-14T01:25:28;11.43;;;7.27;;
13793;SDS011;31160;49.500;7.772;2022-11-14T01:28:15;10.47;;;7.13;;
13793;SDS011;31160;49.500;7.772;2022-11-14T01:33:54;31.97;;;8.30;;
13793;SDS011;31160;49.500;7.772;2022-11-14T01:36:40;14.73;;;8.50;;
13793;SDS011;31160;49.500;7.772;2022-11-14T01:39:25;11.87;;;7.90;;
13793;SDS011;31160;49.500;7.772;2022-11-14T01:42:11;12.67;;;7.70;;
13793;SDS011;31160;49.500;7.772;2022-11-14T01:44:56;12.63;;;7.80;;
13793;SDS011;31160;49.500;7.772;2022-11-14T01:47:42;13.53;;;7.27;;
13793;SDS011;31160;49.500;7.772;2022-11-14T01:50:27;12.47;;;7.87;;
13793;SDS011;31160;49.500;7.772;2022-11-14T01:53:13;12.70;;;7.13;;
13793;SDS011;31160;49.500;7.772;2022-11-14T01:55:59;10.00;;;6.97;;
13793;SDS011;31160;49.500;7.772;2022-11-14T01:58:50;11.00;;;7.07;;
13793;SDS011;31160;49.500;7.772;2022-11-14T02:01:44;11.00;;;7.37;;
13793;SDS011;31160;49.500;7.772;2022-11-14T02:04:32;11.10;;;7.07;;
13793;SDS011;31160;49.500;7.772;2022-11-14T02:07:24;11.43;;;7.00;;
13793;SDS011;31160;49.500;7.772;2022-11-14T02:10:16;10.63;;;6.87;;
13793;SDS011;31160;49.500;7.772;2022-11-14T02:13:04;10.23;;;6.77;;
13793;SDS011;31160;49.500;7.772;2022-11-14T02:15:49;12.23;;;7.07;;
13793;SDS011;31160;49.500;7.772;2022-11-14T02:18:35;11.83;;;7.97;;
13793;SDS011;31160;49.500;7.772;2022-11-14T02:21:21;11.47;;;7.23;;
13793;SDS011;31160;49.500;7.772;2022-11-14T02:24:08;12.03;;;7.90;;
13793;SDS011;31160;49.500;7.772;2022-11-14T02:26:58;9.93;;;7.13;;
13793;SDS011;31160;49.500;7.772;2022-11-14T02:29:43;10.20;;;6.83;;
13793;SDS011;31160;49.500;7.772;2022-11-14T02:32:29;9.20;;;7.00;;
13793;SDS011;31160;49.500;7.772;2022-11-14T02:35:34;11.50;;;7.27;;
13793;SDS011;31160;49.500;7.772;2022-11-14T02:38:20;14.73;;;8.73;;
13793;SDS011;31160;49.500;7.772;2022-11-14T02:41:05;15.00;;;8.67;;
13793;SDS011;31160;49.500;7.772;2022-11-14T02:43:50;15.43;;;7.53;;
13793;SDS011;31160;49.500;7.772;2022-11-14T02:46:36;17.23;;;8.10;;
13793;SDS011;31160;49.500;7.772;2022-11-14T02:49:21;18.40;;;8.70;;
13793;SDS011;31160;49.500;7.772;2022-11-14T02:52:07;15.23;;;8.20;;
13793;SDS011;31160;49.500;7.772;2022-11-14T02:54:52;15.63;;;8.37;;
13793;SDS011;31160;49.500;7.772;2022-11-14T02:57:38;17.93;;;8.93;;
13793;SDS011;31160;49.500;7.772;2022-11-14T03:00:24;18.13;;;9.27;;
13793;SDS011;31160;49.500;7.772;2022-11-14T03:03:10;21.20;;;10.30;;
13793;SDS011;31160;49.500;7.772;2022-11-14T03:06:02;20.93;;;9.53;;
13793;SDS011;31160;49.500;7.772;2022-11-14T03:08:48;16.00;;;8.60;;
13793;SDS011;31160;49.500;7.772;2022-11-14T03:11:33;17.20;;;8.10;;
13793;SDS011;31160;49.500;7.772;2022-11-14T03:14:18;17.40;;;8.30;;
13793;SDS011;31160;49.500;7.772;2022-11-14T03:17:04;15.73;;;8.83;;
13793;SDS011;31160;49.500;7.772;2022-11-14T03:19:49;15.83;;;9.10;;
13793;SDS011;31160;49.500;7.772;2022-11-14T03:22:35;16.47;;;8.77;;
13793;SDS011;31160;49.500;7.772;2022-11-14T03:25:20;14.60;;;8.93;;
13793;SDS011;31160;49.500;7.772;2022-11-14T03:28:06;15.73;;;8.90;;
13793;SDS011;31160;49.500;7.772;2022-11-14T03:30:51;15.63;;;8.87;;
13793;SDS011;31160;49.500;7.772;2022-11-14T03:33:37;15.57;;;9.67;;
13793;SDS011;31160;49.500;7.772;2022-11-14T03:36:22;14.87;;;8.30;;
13793;SDS011;31160;49.500;7.772;2022-11-14T03:39:08;16.37;;;9.07;;
13793;SDS011;31160;49.500;7.772;2022-11-14T03:41:53;15.40;;;9.37;;
13793;SDS011;31160;49.500;7.772;2022-11-14T03:44:39;17.40;;;8.83;;
13793;SDS011;31160;49.500;7.772;2022-11-14T03:47:24;21.83;;;10.27;;
13793;SDS011;31160;49.500;7.772;2022-11-14T03:50:10;20.47;;;9.63;;
13793;SDS011;31160;49.500;7.772;2022-11-14T03:52:55;20.37;;;10.43;;
13793;SDS011;31160;49.500;7.772;2022-11-14T03:55:42;21.40;;;10.90;;
13793;SDS011;31160;49.500;7.772;2022-11-14T03:58:28;19.80;;;11.63;;
13793;SDS011;31160;49.500;7.772;2022-11-14T04:01:14;21.70;;;11.43;;
13793;SDS011;31160;49.500;7.772;2022-11-14T04:03:59;20.00;;;10.73;;
13793;SDS011;31160;49.500;7.772;2022-11-14T04:06:45;22.63;;;11.80;;
13793;SDS011;31160;49.500;7.772;2022-11-14T04:09:31;22.63;;;11.17;;
13793;SDS011;31160;49.500;7.772;2022-11-14T04:12:16;25.00;;;12.00;;
13793;SDS011;31160;49.500;7.772;2022-11-14T04:15:02;24.27;;;12.27;;
13793;SDS011;31160;49.500;7.772;2022-11-14T04:17:48;20.80;;;11.57;;
13793;SDS011;31160;49.500;7.772;2022-11-14T04:20:33;25.60;;;12.27;;
13793;SDS011;31160;49.500;7.772;2022-11-14T04:23:19;24.77;;;13.00;;
13793;SDS011;31160;49.500;7.772;2022-11-14T04:26:04;23.73;;;12.13;;
13793;SDS011;31160;49.500;7.772;2022-11-14T04:28:50;22.10;;;11.27;;
13793;SDS011;31160;49.500;7.772;2022-11-14T04:31:35;26.87;;;11.90;;
13793;SDS011;31160;49.500;7.772;2022-11-14T04:34:20;21.87;;;11.57;;
13793;SDS011;31160;49.500;7.772;2022-11-14T04:37:06;23.27;;;11.90;;
13793;SDS011;31160;49.500;7.772;2022-11-14T04:39:51;23.90;;;11.13;;
13793;SDS011;31160;49.500;7.772;2022-11-14T04:42:37;20.37;;;11.17;;
13793;SDS011;31160;49.500;7.772;2022-11-14T04:45:22;21.30;;;11.20;;
13793;SDS011;31160;49.500;7.772;2022-11-14T04:48:08;19.83;;;11.27;;
13793;SDS011;31160;49.500;7.772;2022-11-14T04:50:53;18.80;;;10.93;;
13793;SDS011;31160;49.500;7.772;2022-11-14T04:53:38;20.57;;;12.00;;
13793;SDS011;31160;49.500;7.772;2022-11-14T04:56:24;28.07;;;12.43;;
13793;SDS011;31160;49.500;7.772;2022-11-14T04:59:09;20.63;;;11.47;;
13793;SDS011;31160;49.500;7.772;2022-11-14T05:01:58;20.90;;;12.17;;
13793;SDS011;31160;49.500;7.772;2022-11-14T05:04:43;23.17;;;12.50;;
13793;SDS011;31160;49.500;7.772;2022-11-14T05:07:30;23.47;;;12.33;;
13793;SDS011;31160;49.500;7.772;2022-11-14T05:10:16;24.43;;;12.63;;
13793;SDS011;31160;49.500;7.772;2022-11-14T05:13:02;23.23;;;13.00;;
13793;SDS011;31160;49.500;7.772;2022-11-14T05:15:47;26.87;;;12.67;;
13793;SDS011;31160;49.500;7.772;2022-11-14T05:18:33;23.23;;;12.47;;
13793;SDS011;31160;49.500;7.772;2022-11-14T05:21:18;23.83;;;13.83;;
13793;SDS011;31160;49.500;7.772;2022-11-14T05:24:04;25.03;;;13.47;;
13793;SDS011;31160;49.500;7.772;2022-11-14T05:26:50;27.10;;;13.33;;
13793;SDS011;31160;49.500;7.772;2022-11-14T05:29:35;24.30;;;13.73;;
13793;SDS011;31160;49.500;7.772;2022-11-14T05:32:21;25.47;;;14.27;;
13793;SDS011;31160;49.500;7.772;2022-11-14T05:35:06;26.67;;;14.03;;
13793;SDS011;31160;49.500;7.772;2022-11-14T05:37:52;24.23;;;14.13;;
13793;SDS011;31160;49.500;7.772;2022-11-14T05:40:43;24.27;;;13.70;;
13793;SDS011;31160;49.500;7.772;2022-11-14T05:43:29;26.00;;;13.73;;
13793;SDS011;31160;49.500;7.772;2022-11-14T05:46:15;22.57;;;12.63;;
13793;SDS011;31160;49.500;7.772;2022-11-14T05:49:00;24.43;;;13.47;;
13793;SDS011;31160;49.500;7.772;2022-11-14T05:51:46;24.07;;;13.27;;
13793;SDS011;31160;49.500;7.772;2022-11-14T05:54:31;25.70;;;14.63;;
13793;SDS011;31160;49.500;7.772;2022-11-14T05:57:17;27.33;;;12.77;;
13793;SDS011;31160;49.500;7.772;2022-11-14T06:00:03;23.90;;;13.23;;
13793;SDS011;31160;49.500;7.772;2022-11-14T06:02:52;24.33;;;13.70;;
13793;SDS011;31160;49.500;7.772;2022-11-14T06:05:38;25.77;;;13.77;;
13793;SDS011;31160;49.500;7.772;2022-11-14T06:08:24;22.13;;;13.23;;
13793;SDS011;31160;49.500;7.772;2022-11-14T06:11:12;23.53;;;14.37;;
13793;SDS011;31160;49.500;7.772;2022-11-14T06:14:02;25.97;;;14.77;;
13793;SDS011;31160;49.500;7.772;2022-11-14T06:16:54;26.27;;;14.73;;
13793;SDS011;31160;49.500;7.772;2022-11-14T06:19:39;28.73;;;14.77;;
13793;SDS011;31160;49.500;7.772;2022-11-14T06:22:25;30.17;;;16.27;;
13793;SDS011;31160;49.500;7.772;2022-11-14T06:25:10;30.03;;;14.73;;
13793;SDS011;31160;49.500;7.772;2022-11-14T06:27:57;26.83;;;14.97;;
13793;SDS011;31160;49.500;7.772;2022-11-14T06:30:43;26.33;;;15.63;;
13793;SDS011;31160;49.500;7.772;2022-11-14T06:33:29;26.97;;;14.77;;
13793;SDS011;31160;49.500;7.772;2022-11-14T06:36:18;26.03;;;15.27;;
13793;SDS011;31160;49.500;7.772;2022-11-14T06:39:03;26.37;;;15.77;;
13793;SDS011;31160;49.500;7.772;2022-11-14T06:41:49;24.77;;;15.00;;
13793;SDS011;31160;49.500;7.772;2022-11-14T06:44:34;29.23;;;15.60;;
13793;SDS011;31160;49.500;7.772;2022-11-14T06:47:20;25.67;;;14.90;;
13793;SDS011;31160;49.500;7.772;2022-11-14T06:50:06;30.73;;;15.77;;
13793;SDS011;31160;49.500;7.772;2022-11-14T06:52:52;26.53;;;14.67;;
13793;SDS011;31160;49.500;7.772;2022-11-14T06:55:37;26.90;;;14.90;;
13793;SDS011;31160;49.500;7.772;2022-11-14T06:58:29;27.13;;;15.20;;
13793;SDS011;31160;49.500;7.772;2022-11-14T07:01:17;29.63;;;14.77;;
13793;SDS011;31160;49.500;7.772;2022-11-14T07:04:09;29.43;;;15.60;;
13793;SDS011;31160;49.500;7.772;2022-11-14T07:06:54;28.73;;;15.20;;
13793;SDS011;31160;49.500;7.772;2022-11-14T07:09:40;23.80;;;14.77;;
13793;SDS011;31160;49.500;7.772;2022-11-14T07:12:25;25.27;;;14.60;;
13793;SDS011;31160;49.500;7.772;2022-11-14T07:15:12;26.33;;;15.03;;
13793;SDS011;31160;49.500;7.772;2022-11-14T07:17:58;24.43;;;14.27;;
13793;SDS011;31160;49.500;7.772;2022-11-14T07:20:43;24.80;;;14.80;;
13793;SDS011;31160;49.500;7.772;2022-11-14T07:23:30;26.53;;;14.23;;
13793;SDS011;31160;49.500;7.772;2022-11-14T07:26:17;23.87;;;14.53;;
13793;SDS011;31160;49.500;7.772;2022-11-14T07:29:03;21.53;;;12.07;;
13793;SDS011;31160;49.500;7.772;2022-11-14T07:31:48;18.80;;;12.63;;
13793;SDS011;31160;49.500;7.772;2022-11-14T07:34:34;20.60;;;11.23;;
13793;SDS011;31160;49.500;7.772;2022-11-14T07:37:19;18.90;;;11.53;;
13793;SDS011;31160;49.500;7.772;2022-11-14T07:40:05;19.47;;;12.37;;
13793;SDS011;31160;49.500;7.772;2022-11-14T07:42:51;20.47;;;12.37;;
13793;SDS011;31160;49.500;7.772;2022-11-14T07:45:41;23.10;;;11.70;;
13793;SDS011;31160;49.500;7.772;2022-11-14T07:48:28;19.37;;;11.37;;
13793;SDS011;31160;49.500;7.772;2022-11-14T07:51:15;20.53;;;11.93;;
13793;SDS011;31160;49.500;7.772;2022-11-14T07:54:02;17.77;;;11.47;;
13793;SDS011;31160;49.500;7.772;2022-11-14T07:56:47;21.17;;;12.23;;
13793;SDS011;31160;49.500;7.772;2022-11-14T07:59:33;21.87;;;11.70;;
13793;SDS011;31160;49.500;7.772;2022-11-14T08:02:18;19.63;;;11.77;;
13793;SDS011;31160;49.500;7.772;2022-11-14T08:05:04;23.07;;;12.43;;
13793;SDS011;31160;49.500;7.772;2022-11-14T08:07:50;18.40;;;11.40;;
13793;SDS011;31160;49.500;7.772;2022-11-14T08:10:36;20.17;;;12.43;;
13793;SDS011;31160;49.500;7.772;2022-11-14T08:13:21;16.60;;;11.07;;
13793;SDS011;31160;49.500;7.772;2022-11-14T08:16:17;19.40;;;11.20;;
13793;SDS011;31160;49.500;7.772;2022-11-14T08:19:02;15.13;;;10.33;;
13793;SDS011;31160;49.500;7.772;2022-11-14T08:21:48;17.67;;;11.37;;
13793;SDS011;31160;49.500;7.772;2022-11-14T08:24:33;16.90;;;10.93;;
13793;SDS011;31160;49.500;7.772;2022-11-14T08:27:19;14.87;;;9.43;;
13793;SDS011;31160;49.500;7.772;2022-11-14T08:30:04;14.53;;;10.10;;
13793;SDS011;31160;49.500;7.772;2022-11-14T08:32:50;15.77;;;9.83;;
13793;SDS011;31160;49.500;7.772;2022-11-14T08:35:35;17.33;;;10.70;;
13793;SDS011;31160;49.500;7.772;2022-11-14T08:38:21;15.60;;;10.37;;
13793;SDS011;31160;49.500;7.772;2022-11-14T08:41:06;24.10;;;12.47;;
13793;SDS011;31160;49.500;7.772;2022-11-14T08:43:52;21.00;;;12.27;;
13793;SDS011;31160;49.500;7.772;2022-11-14T08:46:37;20.07;;;11.97;;
13793;SDS011;31160;49.500;7.772;2022-11-14T08:49:23;20.40;;;12.33;;
13793;SDS011;31160;49.500;7.772;2022-11-14T08:52:08;16.50;;;11.33;;
13793;SDS011;31160;49.500;7.772;2022-11-14T08:55:00;15.30;;;10.70;;
13793;SDS011;31160;49.500;7.772;2022-11-14T08:57:46;16.10;;;10.27;;
13793;SDS011;31160;49.500;7.772;2022-11-14T09:00:34;17.10;;;11.07;;
13793;SDS011;31160;49.500;7.772;2022-11-14T09:03:19;18.83;;;11.23;;
13793;SDS011;31160;49.500;7.772;2022-11-14T09:06:05;14.90;;;9.83;;
13793;SDS011;31160;49.500;7.772;2022-11-14T09:08:50;15.97;;;10.53;;
13793;SDS011;31160;49.500;7.772;2022-11-14T09:11:36;12.43;;;8.90;;
13793;SDS011;31160;49.500;7.772;2022-11-14T09:14:21;12.20;;;9.10;;
13793;SDS011;31160;49.500;7.772;2022-11-14T09:17:07;13.13;;;9.10;;
13793;SDS011;31160;49.500;7.772;2022-11-14T09:19:52;19.40;;;12.20;;
13793;SDS011;31160;49.500;7.772;2022-11-14T09:22:37;13.60;;;9.37;;
13793;SDS011;31160;49.500;7.772;2022-11-14T09:25:23;11.10;;;8.07;;
13793;SDS011;31160;49.500;7.772;2022-11-14T09:28:10;13.13;;;8.10;;
13793;SDS011;31160;49.500;7.772;2022-11-14T09:31:02;13.03;;;8.67;;
13793;SDS011;31160;49.500;7.772;2022-11-14T09:33:50;11.33;;;8.80;;
13793;SDS011;31160;49.500;7.772;2022-11-14T09:36:35;10.07;;;7.87;;
13793;SDS011;31160;49.500;7.772;2022-11-14T09:39:21;11.60;;;8.80;;
13793;SDS011;31160;49.500;7.772;2022-11-14T09:45:16;13.00;;;9.10;;
13793;SDS011;31160;49.500;7.772;2022-11-14T09:48:06;20.93;;;15.30;;
13793;SDS011;31160;49.500;7.772;2022-11-14T09:51:07;11.90;;;8.97;;
13793;SDS011;31160;49.500;7.772;2022-11-14T09:57:14;15.77;;;10.33;;
13793;SDS011;31160;49.500;7.772;2022-11-14T10:00:02;10.83;;;7.90;;
13793;SDS011;31160;49.500;7.772;2022-11-14T10:17:55;8.77;;;6.47;;
13793;SDS011;31160;49.500;7.772;2022-11-14T10:20:53;9.80;;;7.47;;
13793;SDS011;31160;49.500;7.772;2022-11-14T10:23:44;7.57;;;5.97;;
13793;SDS011;31160;49.500;7.772;2022-11-14T10:26:36;9.20;;;6.90;;
13793;SDS011;31160;49.500;7.772;2022-11-14T10:29:42;9.43;;;6.53;;
13793;SDS011;31160;49.500;7.772;2022-11-14T10:33:03;8.20;;;6.70;;
13793;SDS011;31160;49.500;7.772;2022-11-14T10:36:14;7.67;;;6.07;;
13793;SDS011;31160;49.500;7.772;2022-11-14T10:45:17;8.77;;;6.43;;
13793;SDS011;31160;49.500;7.772;2022-11-14T10:48:30;8.33;;;6.13;;
13793;SDS011;31160;49.500;7.772;2022-11-14T10:51:26;9.30;;;6.70;;
13793;SDS011;31160;49.500;7.772;2022-11-14T10:54:18;8.80;;;6.37;;
13793;SDS011;31160;49.500;7.772;2022-11-14T10:57:14;11.07;;;7.37;;
13793;SDS011;31160;49.500;7.772;2022-11-14T11:00:05;10.30;;;7.90;;
13793;SDS011;31160;49.500;7.772;2022-11-14T11:02:55;12.20;;;8.33;;
13793;SDS011;31160;49.500;7.772;2022-11-14T11:05:46;9.00;;;6.43;;
13793;SDS011;31160;49.500;7.772;2022-11-14T11:08:41;15.13;;;6.63;;
13793;SDS011;31160;49.500;7.772;2022-11-14T11:11:57;9.33;;;6.17;;
13793;SDS011;31160;49.500;7.772;2022-11-14T11:14:46;7.70;;;6.27;;
13793;SDS011;31160;49.500;7.772;2022-11-14T11:17:33;7.60;;;5.70;;
13793;SDS011;31160;49.500;7.772;2022-11-14T11:20:32;6.80;;;5.93;;
13793;SDS011;31160;49.500;7.772;2022-11-14T11:23:21;7.43;;;5.70;;
13793;SDS011;31160;49.500;7.772;2022-11-14T11:31:55;9.07;;;6.17;;
13793;SDS011;31160;49.500;7.772;2022-11-14T11:34:41;6.50;;;5.53;;
13793;SDS011;31160;49.500;7.772;2022-11-14T11:37:43;14.90;;;9.07;;
13793;SDS011;31160;49.500;7.772;2022-11-14T11:40:38;8.47;;;5.43;;
13793;SDS011;31160;49.500;7.772;2022-11-14T11:43:26;8.03;;;5.40;;
13793;SDS011;31160;49.500;7.772;2022-11-14T11:49:47;8.83;;;6.20;;
13793;SDS011;31160;49.500;7.772;2022-11-14T11:55:33;7.47;;;5.67;;
13793;SDS011;31160;49.500;7.772;2022-11-14T11:58:25;8.37;;;5.93;;
13793;SDS011;31160;49.500;7.772;2022-11-14T12:01:16;7.30;;;5.67;;
13793;SDS011;31160;49.500;7.772;2022-11-14T12:04:03;6.43;;;5.43;;
13793;SDS011;31160;49.500;7.772;2022-11-14T12:06:51;8.30;;;6.10;;
13793;SDS011;31160;49.500;7.772;2022-11-14T12:09:46;10.53;;;6.83;;
13793;SDS011;31160;49.500;7.772;2022-11-14T12:19:24;7.03;;;5.23;;
13793;SDS011;31160;49.500;7.772;2022-11-14T12:31:56;6.30;;;5.27;;
13793;SDS011;31160;49.500;7.772;2022-11-14T12:34:47;7.07;;;5.20;;
13793;SDS011;31160;49.500;7.772;2022-11-14T12:37:34;6.27;;;5.07;;
13793;SDS011;31160;49.500;7.772;2022-11-14T12:40:28;7.70;;;4.80;;
13793;SDS011;31160;49.500;7.772;2022-11-14T12:43:35;7.50;;;5.30;;
13793;SDS011;31160;49.500;7.772;2022-11-14T12:46:22;6.67;;;4.87;;
13793;SDS011;31160;49.500;7.772;2022-11-14T13:04:39;7.97;;;4.50;;
13793;SDS011;31160;49.500;7.772;2022-11-14T13:10:29;6.20;;;4.87;;
13793;SDS011;31160;49.500;7.772;2022-11-14T13:13:20;6.37;;;4.63;;
13793;SDS011;31160;49.500;7.772;2022-11-14T13:16:25;8.73;;;4.60;;
13793;SDS011;31160;49.500;7.772;2022-11-14T13:19:33;6.40;;;5.10;;
13793;SDS011;31160;49.500;7.772;2022-11-14T13:22:38;8.07;;;5.43;;
13793;SDS011;31160;49.500;7.772;2022-11-14T13:25:25;7.80;;;5.47;;
13793;SDS011;31160;49.500;7.772;2022-11-14T13:31:23;12.20;;;5.63;;
13793;SDS011;31160;49.500;7.772;2022-11-14T13:37:24;8.23;;;5.37;;
13793;SDS011;31160;49.500;7.772;2022-11-14T13:40:52;6.37;;;4.70;;
13793;SDS011;31160;49.500;7.772;2022-11-14T13:43:38;8.83;;;6.00;;
13793;SDS011;31160;49.500;7.772;2022-11-14T13:49:47;12.77;;;8.47;;
13793;SDS011;31160;49.500;7.772;2022-11-14T13:52:40;9.83;;;6.60;;
13793;SDS011;31160;49.500;7.772;2022-11-14T13:55:35;8.57;;;6.57;;
13793;SDS011;31160;49.500;7.772;2022-11-14T14:01:28;9.63;;;5.47;;
13793;SDS011;31160;49.500;7.772;2022-11-14T14:07:29;8.07;;;5.17;;
13793;SDS011;31160;49.500;7.772;2022-11-14T14:13:47;7.93;;;5.10;;
13793;SDS011;31160;49.500;7.772;2022-11-14T14:16:47;11.33;;;6.07;;
13793;SDS011;31160;49.500;7.772;2022-11-14T14:19:44;8.13;;;5.83;;
13793;SDS011;31160;49.500;7.772;2022-11-14T14:25:57;7.83;;;5.40;;
13793;SDS011;31160;49.500;7.772;2022-11-14T14:29:12;7.53;;;5.37;;
13793;SDS011;31160;49.500;7.772;2022-11-14T14:32:10;8.30;;;5.43;;
13793;SDS011;31160;49.500;7.772;2022-11-14T14:38:12;8.37;;;5.63;;
13793;SDS011;31160;49.500;7.772;2022-11-14T14:41:15;9.57;;;5.53;;
13793;SDS011;31160;49.500;7.772;2022-11-14T14:44:03;10.93;;;5.70;;
13793;SDS011;31160;49.500;7.772;2022-11-14T14:46:50;10.63;;;5.80;;
13793;SDS011;31160;49.500;7.772;2022-11-14T14:49:36;9.37;;;6.13;;
13793;SDS011;31160;49.500;7.772;2022-11-14T14:55:22;10.43;;;6.90;;
13793;SDS011;31160;49.500;7.772;2022-11-14T15:01:11;12.83;;;6.73;;
13793;SDS011;31160;49.500;7.772;2022-11-14T15:04:01;9.63;;;7.33;;
13793;SDS011;31160;49.500;7.772;2022-11-14T15:06:51;9.50;;;6.30;;
13793;SDS011;31160;49.500;7.772;2022-11-14T15:09:37;8.83;;;5.80;;
13793;SDS011;31160;49.500;7.772;2022-11-14T15:12:22;11.67;;;5.90;;
13793;SDS011;31160;49.500;7.772;2022-11-14T15:15:12;12.00;;;6.43;;
13793;SDS011;31160;49.500;7.772;2022-11-14T15:18:01;14.87;;;6.57;;
13793;SDS011;31160;49.500;7.772;2022-11-14T15:21:08;9.87;;;6.33;;
13793;SDS011;31160;49.500;7.772;2022-11-14T15:24:22;8.03;;;5.17;;
13793;SDS011;31160;49.500;7.772;2022-11-14T15:27:10;9.77;;;6.43;;
13793;SDS011;31160;49.500;7.772;2022-11-14T15:29:59;7.83;;;5.60;;
13793;SDS011;31160;49.500;7.772;2022-11-14T15:32:51;8.70;;;6.17;;
13793;SDS011;31160;49.500;7.772;2022-11-14T15:35:38;7.13;;;5.13;;
13793;SDS011;31160;49.500;7.772;2022-11-14T15:38:24;8.37;;;5.87;;
13793;SDS011;31160;49.500;7.772;2022-11-14T15:41:28;8.83;;;6.03;;
13793;SDS011;31160;49.500;7.772;2022-11-14T15:44:31;12.93;;;7.77;;
13793;SDS011;31160;49.500;7.772;2022-11-14T15:53:04;9.43;;;6.77;;
13793;SDS011;31160;49.500;7.772;2022-11-14T15:55:59;10.80;;;6.27;;
13793;SDS011;31160;49.500;7.772;2022-11-14T15:58:45;9.30;;;5.73;;
13793;SDS011;31160;49.500;7.772;2022-11-14T16:01:33;9.57;;;6.60;;
13793;SDS011;31160;49.500;7.772;2022-11-14T16:04:20;15.23;;;6.27;;
13793;SDS011;31160;49.500;7.772;2022-11-14T16:07:11;11.37;;;6.43;;
13793;SDS011;31160;49.500;7.772;2022-11-14T16:09:58;9.60;;;7.83;;
13793;SDS011;31160;49.500;7.772;2022-11-14T16:12:44;9.70;;;6.37;;
13793;SDS011;31160;49.500;7.772;2022-11-14T16:15:36;11.37;;;6.53;;
13793;SDS011;31160;49.500;7.772;2022-11-14T16:18:21;11.47;;;6.83;;
13793;SDS011;31160;49.500;7.772;2022-11-14T16:21:09;13.27;;;6.07;;
13793;SDS011;31160;49.500;7.772;2022-11-14T16:23:59;10.50;;;6.83;;
13793;SDS011;31160;49.500;7.772;2022-11-14T16:26:45;9.97;;;6.90;;
13793;SDS011;31160;49.500;7.772;2022-11-14T16:29:31;11.13;;;6.93;;
13793;SDS011;31160;49.500;7.772;2022-11-14T16:32:16;17.03;;;11.37;;
13793;SDS011;31160;49.500;7.772;2022-11-14T16:35:02;19.80;;;11.80;;
13793;SDS011;31160;49.500;7.772;2022-11-14T16:37:48;14.00;;;10.57;;
13793;SDS011;31160;49.500;7.772;2022-11-14T16:40:34;10.87;;;8.10;;
13793;SDS011;31160;49.500;7.772;2022-11-14T16:43:19;13.57;;;8.33;;
13793;SDS011;31160;49.500;7.772;2022-11-14T16:46:05;15.47;;;9.40;;
13793;SDS011;31160;49.500;7.772;2022-11-14T16:48:51;14.20;;;9.93;;
13793;SDS011;31160;49.500;7.772;2022-11-14T16:51:38;20.43;;;11.33;;
13793;SDS011;31160;49.500;7.772;2022-11-14T16:54:34;16.97;;;10.73;;
13793;SDS011;31160;49.500;7.772;2022-11-14T16:57:20;17.77;;;11.23;;
13793;SDS011;31160;49.500;7.772;2022-11-14T17:00:06;16.30;;;11.40;;
13793;SDS011;31160;49.500;7.772;2022-11-14T17:02:54;15.60;;;10.40;;
13793;SDS011;31160;49.500;7.772;2022-11-14T17:05:43;15.87;;;10.07;;
13793;SDS011;31160;49.500;7.772;2022-11-14T17:08:29;18.17;;;10.73;;
13793;SDS011;31160;49.500;7.772;2022-11-14T17:11:15;15.60;;;11.70;;
13793;SDS011;31160;49.500;7.772;2022-11-14T17:14:00;15.53;;;11.07;;
13793;SDS011;31160;49.500;7.772;2022-11-14T17:16:45;16.00;;;11.00;;
13793;SDS011;31160;49.500;7.772;2022-11-14T17:19:31;14.33;;;9.20;;
13793;SDS011;31160;49.500;7.772;2022-11-14T17:22:17;12.03;;;7.93;;
13793;SDS011;31160;49.500;7.772;2022-11-14T17:25:03;13.43;;;9.20;;
13793;SDS011;31160;49.500;7.772;2022-11-14T17:27:49;11.83;;;8.40;;
13793;SDS011;31160;49.500;7.772;2022-11-14T17:30:41;18.50;;;8.30;;
13793;SDS011;31160;49.500;7.772;2022-11-14T17:33:27;26.53;;;15.93;;
13793;SDS011;31160;49.500;7.772;2022-11-14T17:36:13;20.63;;;12.97;;
13793;SDS011;31160;49.500;7.772;2022-11-14T17:38:58;18.87;;;11.50;;
13793;SDS011;31160;49.500;7.772;2022-11-14T17:41:44;18.33;;;11.63;;
13793;SDS011;31160;49.500;7.772;2022-11-14T17:44:30;50.77;;;35.17;;
13793;SDS011;31160;49.500;7.772;2022-11-14T17:47:15;38.07;;;24.93;;
13793;SDS011;31160;49.500;7.772;2022-11-14T17:50:02;26.63;;;13.50;;
13793;SDS011;31160;49.500;7.772;2022-11-14T17:52:47;22.97;;;14.60;;
13793;SDS011;31160;49.500;7.772;2022-11-14T17:55:33;20.10;;;12.90;;
13793;SDS011;31160;49.500;7.772;2022-11-14T17:58:19;14.03;;;9.83;;
13793;SDS011;31160;49.500;7.772;2022-11-14T18:01:08;12.87;;;11.13;;
13793;SDS011;31160;49.500;7.772;2022-11-14T18:03:55;11.63;;;8.23;;
13793;SDS011;31160;49.500;7.772;2022-11-14T18:06:46;10.23;;;8.13;;
13793;SDS011;31160;49.500;7.772;2022-11-14T18:09:32;11.60;;;7.47;;
13793;SDS011;31160;49.500;7.772;2022-11-14T18:12:17;11.43;;;6.63;;
13793;SDS011;31160;49.500;7.772;2022-11-14T18:15:03;10.00;;;7.30;;
13793;SDS011;31160;49.500;7.772;2022-11-14T18:17:48;11.87;;;6.47;;
13793;SDS011;31160;49.500;7.772;2022-11-14T18:20:36;13.43;;;6.93;;
13793;SDS011;31160;49.500;7.772;2022-11-14T18:23:21;9.80;;;6.90;;
13793;SDS011;31160;49.500;7.772;2022-11-14T18:26:08;11.93;;;7.67;;
13793;SDS011;31160;49.500;7.772;2022-11-14T18:28:54;16.97;;;9.30;;
13793;SDS011;31160;49.500;7.772;2022-11-14T18:31:44;25.67;;;12.37;;
13793;SDS011;31160;49.500;7.772;2022-11-14T18:34:30;37.10;;;19.20;;